Tiempo atmosférico en la estación meteorológica de Viso Del Marqués, Ciudad Real (778 m.)



Fecha
DESCASC
Temp. máxima en grados centígrados (hora)
DESCASC
Temp. mínima en grados centígrados (hora)
DESCASC
Temp. media en grados centígrados
DESCASC
Racha de viento máxima en m/sg (hora)
DESCASC
Velocidad máxima media en intervalos de 10 minutos(hora)
DESCASC
Precipitaciones diarias en mm
DESCASC
Precipitaciones de 00:00 a 06:00 en mm
DESCASC
Precipitaciones de 06:00 a 12:00 en mm
DESCASC
Precipitaciones de 12:00 a 18:00 en mm
DESCASC
Precipitaciones de 18:00 a 24:00 en mm
DESCASC
18-08-2019 36.6 (16:40) 19.8 (07:50) 28.2 19.17 (17:00) 6.39 (17:20) 0 0 0 0 0
17-08-2019 36.5 (16:30) 21 (07:40) 28.8 11.39 (15:20) 6.94 (15:50) 0 0 0 0 0
16-08-2019 36.1 (17:00) 19.9 (07:20) 28 9.17 (16:30) 5.28 (19:30) 0 0 0 0 0
15-08-2019 35.6 (17:50) 18.2 (00:00) 26.9 8.61 (15:20) 5.28 (15:20) 0 0 0 0 0
14-08-2019 33.8 (17:10) 16.7 (00:00) 25.3 8.06 (14:40) 3.89 (16:10) 0 0 0 0 0
13-08-2019 31.5 (17:30) 13.6 (00:00) 22.6 10 (18:00) 3.61 (18:00) 0 0 0 0 0
12-08-2019 28.2 (17:20) 14.3 (00:00) 21.3 8.33 (20:20) 5.28 (11:30) 0 0 0 0 0
11-08-2019 30.8 (15:30) 16.8 (00:00) 23.8 9.44 (18:50) 5.28 (19:00) 0 0 0 0 0
10-08-2019 34.2 (16:00) 18.8 (00:00) 26.5 9.72 (16:30) 6.11 (17:20) 0 0 0 0 0
09-08-2019 34.7 (16:40) 19.3 (00:00) 27 10.28 (01:30) 7.5 (01:30) 0 0 0 0 0
08-08-2019 35.7 (16:30) 17.8 (00:00) 26.8 10.28 (18:10) 6.39 (16:40) 0 0 0 0 0
07-08-2019 32.7 (14:30) 19.1 (00:00) 25.9 11.39 (15:20) 4.72 (14:30) 0 0 0 0 0
06-08-2019 35.6 (17:30) 18.4 (00:00) 27 12.5 (13:40) 6.94 (19:00) 0 0 0 0 0
05-08-2019 36.9 (16:30) 18.4 (00:00) 27.7 9.44 (17:20) 6.11 (18:10) 0 0 0 0 0
04-08-2019 35.5 (16:30) 19.5 (00:00) 27.5 8.61 (14:40) 5.83 (20:30) 0 0 0 0 0
03-08-2019 36.1 (15:40) 18.7 (00:00) 27.4 9.17 (17:00) 5.56 (19:50) 0 0 0 0 0
02-08-2019 36.6 (17:10) 19.3 (00:00) 27.9 9.17 (18:50) 6.11 (20:00) 0 0 0 0 0
01-08-2019 34.8 (17:30) 18.9 (00:00) 26.8 7.78 (19:30) 5.28 (20:30) 0 0 0 0 0
31-07-2019 34.8 (16:20) 18.2 (00:00) 26.5 9.72 (16:10) 5.28 (06:10) 0 0 0 0 0
30-07-2019 33.4 (17:40) 16.3 (00:00) 24.9 6.67 (13:00) 3.61 (19:20) 0 0 0 0 0
29-07-2019 33.5 (17:40) 17.6 (00:00) 25.6 10 (19:50) 5.28 (19:30) 0 0 0 0 0
28-07-2019 30.9 (17:40) 15.3 (00:00) 23.1 7.78 (18:20) 3.33 (17:50) 0 0 0 0 0
27-07-2019 26.4 (15:30) 14.3 (00:00) 20.3 13.61 (15:40) 8.33 (16:00) 0 0 0 0 0
26-07-2019 31.8 (16:30) 19.4 (00:00) 25.6 12.22 (17:40) 7.22 (17:40) 0 0 0 0 0
25-07-2019 35.9 (16:00) 21.9 (00:00) 28.9 9.72 (20:10) 6.67 (20:10) 0 0 0 0 0
24-07-2019 36.9 (15:30) 21.4 (00:00) 29.2 14.72 (14:20) 7.22 (17:20) 0 0 0 0 0
23-07-2019 37.9 (17:10) 21.5 (00:00) 29.7 13.61 (18:50) 9.72 (19:40) 0 0 0 0 0
22-07-2019 38.1 (17:10) 23 (00:00) 30.5 11.94 (02:30) 9.17 (01:30) 0 0 0 0 0

Gráficas

Temp. máximas Temp. mínimas Temp. medias Precipitaciones Rachas de viento máximas Velocidades máximas media en intervalos de 10 minutos

Datos horarios

Fecha y hora oficial Temperatura (ºC) Velocidad del viento (km/h) Dirección del viento Racha (km/h) Dirección de racha Precipitación (mm) Presión (hPa) Tendencia (hPa) Humedad (%)
2019-08-20 23:00:00 27.4 3 Nordeste 18 Oeste 0 925.7 1.8 20
2019-08-20 22:00:00 27.8 8 Noroeste 14 Oeste 0 925 0.7 20
2019-08-20 21:00:00 29.6 3 Oeste 19 Sur 0 924.4 0.2 20
2019-08-20 20:00:00 30.9 10 Sur 19 Sur 0 923.9 -0.5 19
2019-08-20 19:00:00 33.2 3 Sur 17 Sur 0 924.3 -0.8 20
2019-08-20 18:00:00 31.3 4 Sur 18 Este 0 924.2 -1.2 21
2019-08-20 17:00:00 32.8 8 Sudeste 20 Sudeste 0 924.4 -1.2 21
2019-08-20 16:00:00 31.3 6 Este 22 Sudoeste 0 925.1 -0.7 22
2019-08-20 15:00:00 31.1 8 Sur 21 Sudeste 0 925.4 -0.6 22
2019-08-20 14:00:00 30.9 8 Sudeste 23 Sudeste 0 925.6 -0.2 22
2019-08-20 13:00:00 29.8 7 Sudeste 14 Sur 0 925.8 0.6 22
2019-08-20 12:00:00 27.9 4 Nordeste 10 Oeste 0 926 1.3 23
2019-08-20 11:00:00 25.1 5 Oeste 13 Noroeste 0 925.8 1.2 25
2019-08-20 10:00:00 23.8 4 Oeste 11 Oeste 0 925.2 1.1 27
2019-08-20 09:00:00 21.4 2 Norte 6 Este 0 924.7 0.8 31
2019-08-20 08:00:00 19.2 4 Nordeste 7 Nordeste 0 924.6 0.6 31
2019-08-20 07:00:00 18.4 0 Calma 4 Este 0 924.1 0.1 30
2019-08-20 06:00:00 19.5 0 Calma 8 Oeste 0 923.9 -0.2 29
2019-08-20 05:00:00 18.9 6 Oeste 14 Oeste 0 924 -0.2 29
2019-08-20 04:00:00 20.5 9 Oeste 14 Oeste 0 924 -0.7 29
2019-08-20 03:00:00 21.4 8 Oeste 12 Oeste 0 924.1 -0.2 29
2019-08-20 02:00:00 22.5 5 Oeste 14 Oeste 0 924.2 0.1 29
2019-08-20 01:00:00 23.7 11 Oeste 15 Sudoeste 0 924.7 1.4 28
2019-08-20 00:00:00 24.6 12 Sudoeste 16 Oeste 0 924.3 1.3 27
2019-08-19 23:00:00 25.1 9 Sudoeste 16 Sudoeste 0 924.1 1.2 24
2019-08-19 22:00:00 26.1 8 Sudoeste 21 Sudoeste 0 923.3 0.8 22
2019-08-19 21:00:00 28.5 14 Sur 26 Sudoeste 0 923 -0.1 19
2019-08-19 20:00:00 31.1 22 Sur 32 Sudoeste 0 922.9 -0.6 18
2019-08-19 19:00:00 32.3 22 Sur 32 Sudoeste 0 922.5 -1.4 18
2019-08-19 18:00:00 33.3 17 Sudoeste 30 Sudoeste 0 923.1 -1 18
2019-08-19 17:00:00 33.1 19 Sur 37 Sudoeste 0 923.5 -1.2 19
2019-08-19 16:00:00 33.6 8 Sudoeste 31 Sur 0 923.9 -0.7 21
2019-08-19 15:00:00 32.9 14 Sur 28 Sudoeste 0 924.1 -0.9 21
2019-08-19 14:00:00 33 13 Sur 28 Sur 0 924.7 -0.4 23
2019-08-19 13:00:00 31.2 15 Sudoeste 28 Sudoeste 0 924.6 -0.3 25
2019-08-19 12:00:00 29.7 10 Sudeste 21 Este 0 925 0.1 28
2019-08-19 11:00:00 27.8 4 Sudeste 10 Este 0 925.1 0.7 32
2019-08-19 10:00:00 24.9 3 Noroeste 8 Oeste 0 924.9 0.3 36
2019-08-19 09:00:00 21.2 4 Nordeste 5 Norte 0 924.9 0.5 32
2019-08-19 08:00:00 19.6 2 Nordeste 4 Nordeste 0 924.4 -0.3 36
2019-08-19 07:00:00 20.4 0 Calma 3 Noroeste 0 924.6 0.1 35
2019-08-19 06:00:00 20.9 0 Calma 5 Oeste 0 924.4 -0.5 32
2019-08-19 05:00:00 20.7 3 Noroeste 10 Oeste 0 924.7 0 32
2019-08-19 04:00:00 20.5 8 Oeste 14 Oeste 0 924.5 -0.5 29
2019-08-19 03:00:00 21.8 7 Oeste 14 Oeste 0 924.9 0.2 25
2019-08-19 02:00:00 23.3 9 Oeste 13 Oeste 0 924.7 0.2 23
2019-08-19 01:00:00 24.2 8 Sudoeste 12 Oeste 0 925 1.7 23
2019-08-19 00:00:00 25.4 7 Oeste 13 Oeste 0 924.7 2.1 23
2019-08-18 23:00:00 26.8 7 Oeste 12 Oeste 0 924.5 2.2 22
2019-08-18 22:00:00 27.2 7 Oeste 22 Oeste 0 923.3 1.4 22
2019-08-18 21:00:00 30.1 14 Oeste 31 Oeste 0 922.6 0.4 21
2019-08-18 20:00:00 31.8 21 Sudoeste 32 Sudoeste 0 922.3 -0.4 20
2019-08-18 19:00:00 34 22 Sudoeste 34 Sudoeste 0 921.9 -0.9 18
2019-08-18 18:00:00 35.8 18 Sudoeste 37 Sudoeste 0 922.2 -1.3 18
2019-08-18 17:00:00 36.1 11 Sudoeste 69 Sur 0 922.7 -1.2 17
2019-08-18 16:00:00 34.9 15 Sudoeste 36 Sudoeste 0 922.8 -1.4 18
2019-08-18 15:00:00 35.1 15 Sudoeste 32 Sudoeste 0 923.5 -1 18
2019-08-18 14:00:00 34 14 Oeste 31 Sur 0 923.9 -0.4 19
2019-08-18 13:00:00 33 6 Sur 20 Sudoeste 0 924.2 0.4 19
2019-08-18 12:00:00 32.4 6 Oeste 14 Oeste 0 924.5 0.8 20
2019-08-18 11:00:00 29.8 5 Norte 10 Nordeste 0 924.3 0.6 22
2019-08-18 10:00:00 27.6 3 Nordeste 6 Este 0 923.8 0.8 25
2019-08-18 09:00:00 23.9 0 Calma 7 Norte 0 923.7 0.9 29
2019-08-18 08:00:00 20.1 5 Norte 7 Nordeste 0 923.7 0.9 31
2019-08-18 07:00:00 20.3 5 Nordeste 7 Nordeste 0 923 -0.5 29
2019-08-18 06:00:00 21.8 0 Calma 5 Este 0 922.8 -1.3 27
2019-08-18 05:00:00 21.8 4 Nordeste 6 Nordeste 0 922.8 -1.2 26
2019-08-18 04:00:00 23.4 3 Nordeste 6 Nordeste 0 923.5 0 25
2019-08-18 03:00:00 24.9 2 Sudeste 9 Sudeste 0 924.1 0.6 23
2019-08-18 02:00:00 25.1 4 Sur 12 Oeste 0 924 0.6 22
2019-08-18 01:00:00 24.5 9 Sudoeste 21 Noroeste 0 923.5 0.3 22
2019-08-18 00:00:00 26.8 9 Sudoeste 15 Sudoeste 0 923.5 0.7 21
2019-08-17 23:00:00 27.8 8 Sudoeste 14 Sur 0 923.4 0.5 21
2019-08-17 22:00:00 28.5 8 Sudoeste 14 Sudoeste 0 923.2 0.5 20
2019-08-17 21:00:00 30.6 13 Sudoeste 29 Sudoeste 0 922.8 -0.5 19
2019-08-17 20:00:00 33.7 12 Sudoeste 26 Sudoeste 0 922.9 -1 17
2019-08-17 19:00:00 35.4 13 Sudoeste 26 Sudoeste 0 922.7 -1.7 17
2019-08-17 18:00:00 35.6 12 Sur 33 Sur 0 923.3 -1.6 17
2019-08-17 17:00:00 36.3 19 Sur 39 Sur 0 923.9 -1.6 18
2019-08-17 16:00:00 35.7 16 Sur 41 Sudoeste 0 924.4 -1.3 18
2019-08-17 15:00:00 35.6 22 Sudoeste 37 Sudoeste 0 924.9 -1.7 19
2019-08-17 14:00:00 34.8 21 Sur 31 Sur 0 925.5 -0.9 20
2019-08-17 13:00:00 35 5 Sudoeste 16 Sudoeste 0 925.7 -0.9 22
2019-08-17 12:00:00 32.7 6 Norte 15 Nordeste 0 926.6 0.3 25
2019-08-17 11:00:00 30.7 4 Sudoeste 11 Sudoeste 0 926.4 0.6 25
2019-08-17 10:00:00 29.2 3 Sur 8 Sur 0 926.6 0.8 28
2019-08-17 09:00:00 23.7 3 Nordeste 7 Nordeste 0 926.3 0.4 33
2019-08-17 08:00:00 21.3 5 Nordeste 6 Nordeste 0 925.8 0.1 35
2019-08-17 07:00:00 21.5 3 Nordeste 7 Nordeste 0 925.8 0 34
2019-08-17 06:00:00 22.2 2 Nordeste 4 Nordeste 0 925.9 0.4 32
2019-08-17 05:00:00 23 0 Calma 5 Norte 0 925.7 -0.3 29
2019-08-17 04:00:00 24.3 3 Este 5 Este 0 925.8 -0.4 28
2019-08-17 03:00:00 25 3 Este 9 Sudoeste 0 925.5 -0.6 26
2019-08-17 02:00:00 24.9 8 Sur 13 Oeste 0 926 0.3 25
2019-08-17 01:00:00 27.4 9 Oeste 19 Oeste 0 926.2 1 24
2019-08-17 00:00:00 27.6 14 Oeste 28 Sudoeste 0 926.1 0.8 23
2019-08-16 23:00:00 29.2 16 Sudoeste 26 Sudoeste 0 925.7 1 22
2019-08-16 22:00:00 29.8 16 Sudoeste 23 Sudoeste 0 925.2 0.5 22
2019-08-16 21:00:00 30.9 17 Sudoeste 25 Sudoeste 0 925.3 0.5 21
2019-08-16 20:00:00 33.4 14 Sudoeste 30 Sudoeste 0 924.7 -1 20
2019-08-16 19:00:00 35.1 6 Oeste 25 Sudoeste 0 924.7 -1.1 19
2019-08-16 18:00:00 35.3 9 Sudoeste 27 Oeste 0 924.8 -1.5 19
2019-08-16 17:00:00 36.1 5 Sudoeste 33 Sudoeste 0 925.7 -1 19
2019-08-16 16:00:00 35.1 15 Sudoeste 29 Sudoeste 0 925.8 -1.1 19
2019-08-16 15:00:00 34.5 12 Sudoeste 30 Sudoeste 0 926.3 -1 20
2019-08-16 14:00:00 34.6 16 Sudoeste 32 Oeste 0 926.7 -0.3 21
2019-08-16 13:00:00 33.6 10 Oeste 32 Oeste 0 926.9 -0.3 22
2019-08-16 12:00:00 32.8 6 Oeste 16 Oeste 0 927.3 0.2 22
2019-08-16 11:00:00 31.6 3 Sudoeste 12 Oeste 0 927 0.3 25
2019-08-16 10:00:00 29.1 2 Sudeste 6 Sur 0 927.2 1 27
2019-08-16 09:00:00 23.6 3 Nordeste 8 Nordeste 0 927.1 0.8 32
2019-08-16 08:00:00 20.6 6 Nordeste 8 Nordeste 0 926.7 0.1 33
2019-08-16 07:00:00 20.5 0 Calma 8 Norte 0 926.2 -0.4 32
2019-08-16 06:00:00 21.2 3 Nordeste 6 Nordeste 0 926.3 0 29
2019-08-16 05:00:00 21.7 4 Nordeste 7 Nordeste 0 926.6 0 28
2019-08-16 04:00:00 23.2 3 Este 6 Nordeste 0 926.6 0 25
2019-08-16 03:00:00 24.8 4 Sudeste 10 Este 0 926.3 -0.3 25
2019-08-16 02:00:00 24.8 0 Calma 6 Nordeste 0 926.6 0.2 23
2019-08-16 01:00:00 26.3 5 Noroeste 7 Noroeste 0 926.6 0.7 22
2019-08-16 00:00:00 26.2 4 Sur 7 Sudoeste 0 926.6 1.4 21
2019-08-15 23:00:00 27 6 Sudoeste 8 Sudoeste 0 926.4 1 21
2019-08-15 22:00:00 28.5 5 Sudoeste 14 Oeste 0 925.9 0.9 18
2019-08-15 21:00:00 31.9 7 Oeste 14 Noroeste 0 925.2 0.1 16
2019-08-15 20:00:00 33.8 9 Oeste 17 Oeste 0 925.4 -0.3 16
2019-08-15 19:00:00 34.6 4 Oeste 28 Sudoeste 0 925 -1.2 16
2019-08-15 18:00:00 34.9 8 Noroeste 19 Noroeste 0 925.1 -1.5 16
2019-08-15 17:00:00 34.4 12 Noroeste 24 Oeste 0 925.7 -1.6 16
2019-08-15 16:00:00 35 6 Noroeste 31 Oeste 0 926.2 -1.5 17
2019-08-15 15:00:00 34.5 4 Noroeste 22 Sudoeste 0 926.6 -1.5 17
2019-08-15 14:00:00 33.4 6 Sudeste 23 Oeste 0 927.3 -0.7 18
2019-08-15 13:00:00 32.7 5 Este 13 Noroeste 0 927.7 -0.1 18
2019-08-15 12:00:00 31.4 0 Calma 10 Sudeste 0 928.1 0.6 19
2019-08-15 11:00:00 28.9 2 Norte 10 Este 0 928 0.5 22
2019-08-15 10:00:00 26.3 4 Nordeste 8 Nordeste 0 927.8 0.8 24
2019-08-15 09:00:00 23.3 0 Calma 6 Nordeste 0 927.5 0.7 26
2019-08-15 08:00:00 18.8 5 Nordeste 7 Nordeste 0 927.5 0.7 28
2019-08-15 07:00:00 18.7 5 Nordeste 6 Nordeste 0 927 0.1 26
2019-08-15 06:00:00 20.5 3 Sudoeste 4 Sudoeste 0 926.8 -0.3 25
2019-08-15 05:00:00 21.7 0 Calma 6 Este 0 926.8 -0.7 24
2019-08-15 04:00:00 21.9 6 Noroeste 11 Oeste 0 926.9 -0.7 24
2019-08-15 03:00:00 22.6 9 Oeste 13 Oeste 0 927.1 -0.5 24
2019-08-15 02:00:00 21 5 Sudoeste 9 Sudoeste 0 927.5 -0.2 24
2019-08-15 01:00:00 24.4 3 Norte 7 Sudoeste 0 927.6 0.7 22
2019-08-15 00:00:00 24.7 5 Sudoeste 9 Oeste 0 927.6 1.5 22
2019-08-14 23:00:00 25.9 6 Oeste 11 Sudoeste 0 927.7 1.5 20
2019-08-14 22:00:00 27.2 5 Sur 9 Sur 0 926.9 0.5 17
2019-08-14 21:00:00 30.5 6 Oeste 15 Norte 0 926.1 -0.1 15
2019-08-14 20:00:00 31.8 6 Noroeste 17 Noroeste 0 926.2 -0.7 15
2019-08-14 19:00:00 33.3 10 Noroeste 23 Norte 0 926.4 -0.7 15
2019-08-14 18:00:00 33.5 4 Sudoeste 25 Oeste 0 926.2 -1.5 15
2019-08-14 17:00:00 32.9 6 Noroeste 25 Oeste 0 926.9 -1.5 15
2019-08-14 16:00:00 33 0 Calma 29 Sudeste 0 927.1 -1.3 16
2019-08-14 15:00:00 32.2 10 Noroeste 29 Norte 0 927.7 -0.8 16
2019-08-14 14:00:00 32.2 8 Sudoeste 26 Oeste 0 928.4 -0.6 18
2019-08-14 13:00:00 30.9 6 Oeste 17 Oeste 0 928.4 0.1 19
2019-08-14 12:00:00 29 4 Noroeste 14 Oeste 0 928.5 0.1 22
2019-08-14 11:00:00 27.3 5 Oeste 10 Oeste 0 929 0.8 25
2019-08-14 10:00:00 23.4 5 Nordeste 9 Nordeste 0 928.3 0.5 32
2019-08-14 09:00:00 20.7 0 Calma 5 Norte 0 928.4 1 37
2019-08-14 08:00:00 17.2 3 Norte 8 Norte 0 928.2 1 41
2019-08-14 07:00:00 16.9 0 Calma 11 Sur 0 927.8 0.3 37
2019-08-14 06:00:00 17.5 5 Este 14 Este 0 927.4 -0.2 33
2019-08-14 05:00:00 17.7 4 Nordeste 13 Este 0 927.2 -0.8 27
2019-08-14 04:00:00 19.7 4 Este 8 Este 0 927.5 -0.2 26
2019-08-14 03:00:00 20.5 3 Nordeste 5 Sur 0 927.6 0.3 25
2019-08-14 02:00:00 20.1 3 Sudoeste 9 Sudoeste 0 928 1 25
2019-08-14 01:00:00 22.3 5 Nordeste 10 Nordeste 0 927.7 1.2 23
2019-08-14 00:00:00 22.7 7 Norte 12 Sudeste 0 927.3 1.5 22
2019-08-13 23:00:00 24.3 6 Este 10 Sudeste 0 927 1.7 21
2019-08-13 22:00:00 26.5 5 Norte 15 Norte 0 926.5 1 19
2019-08-13 21:00:00 28 10 Norte 21 Norte 0 925.8 0.4 18
2019-08-13 20:00:00 29.8 9 Norte 20 Norte 0 925.3 -0.4 18
2019-08-13 19:00:00 29.9 9 Noroeste 26 Noroeste 0 925.5 -0.9 18
2019-08-13 18:00:00 30.6 13 Noroeste 36 Norte 0 925.4 -1.3 18
2019-08-13 17:00:00 31.3 6 Norte 21 Oeste 0 925.7 -1.5 18
2019-08-13 16:00:00 30.9 5 Noroeste 22 Noroeste 0 926.4 -0.8 19
2019-08-13 15:00:00 29.9 12 Oeste 23 Oeste 0 926.7 -0.4 19
2019-08-13 14:00:00 29 10 Noroeste 22 Norte 0 927.2 0.1 20
2019-08-13 13:00:00 27.7 6 Norte 17 Norte 0 927.2 0.2 22
2019-08-13 12:00:00 25.9 4 Norte 23 Norte 0 927.1 0.1 25
2019-08-13 11:00:00 23.4 2 Noroeste 7 Norte 0 927.1 0.5 23
2019-08-13 10:00:00 21 2 Noroeste 8 Sudoeste 0 927 1 25
2019-08-13 09:00:00 17.9 3 Oeste 10 Oeste 0 927 1.3 26
2019-08-13 08:00:00 13.8 8 Oeste 10 Oeste 0 926.6 0.6 28
2019-08-13 07:00:00 15.8 8 Oeste 10 Oeste 0 926 -0.2 27
2019-08-13 06:00:00 16.4 3 Oeste 7 Oeste 0 925.7 -1 25
2019-08-13 05:00:00 17.4 6 Oeste 10 Oeste 0 926 -0.4 25
2019-08-13 04:00:00 17.1 6 Oeste 10 Oeste 0 926.2 -0.4 23
2019-08-13 03:00:00 19.5 3 Noroeste 6 Oeste 0 926.7 0 23
2019-08-13 02:00:00 18.7 4 Sudoeste 5 Sudoeste 0 926.4 -0.2 22
2019-08-13 01:00:00 20.5 4 Norte 8 Nordeste 0 926.6 1 22
2019-08-13 00:00:00 20.6 0 Calma 10 Norte 0 926.7 1.4 22
2019-08-12 23:00:00 22.1 3 Norte 12 Norte 0 926.6 2.2 21
2019-08-12 22:00:00 23.3 10 Norte 19 Norte 0 925.6 1.1 19
2019-08-12 21:00:00 24.8 12 Norte 30 Noroeste 0 925.3 0.9 18
2019-08-12 20:00:00 26.1 17 Norte 30 Norte 0 924.4 -0.6 19
2019-08-12 19:00:00 27.1 10 Norte 28 Norte 0 924.5 -1.1 18
2019-08-12 18:00:00 27.4 10 Norte 25 Norte 0 924.4 -1.6 18
2019-08-12 17:00:00 27.6 13 Norte 26 Norte 0 925 -1.4 18
2019-08-12 16:00:00 26.4 10 Norte 22 Norte 0 925.6 -1.4 20
2019-08-12 15:00:00 26.5 9 Nordeste 21 Nordeste 0 926 -0.8 21
2019-08-12 14:00:00 24.9 12 Norte 30 Norte 0 926.4 -0.3 24
2019-08-12 13:00:00 23.5 11 Norte 28 Norte 0 927 0.4 25
2019-08-12 12:00:00 22.5 12 Nordeste 30 Nordeste 0 926.8 0.6 27
2019-08-12 11:00:00 20.4 13 Norte 23 Norte 0 926.7 1.1 29
2019-08-12 10:00:00 19.4 4 Norte 14 Noroeste 0 926.6 1.2 28
2019-08-12 09:00:00 15.8 4 Sudoeste 6 Oeste 0 926.2 0.9 32
2019-08-12 08:00:00 14.5 6 Oeste 11 Oeste 0 925.6 0.3 32
2019-08-12 07:00:00 15.7 5 Oeste 14 Oeste 0 925.4 -0.2 30
2019-08-12 06:00:00 16.3 6 Oeste 15 Oeste 0 925.3 -0.6 29
2019-08-12 05:00:00 15.7 6 Oeste 13 Oeste 0 925.3 -1.5 28
2019-08-12 04:00:00 18 9 Oeste 13 Oeste 0 925.6 -0.7 27
2019-08-12 03:00:00 17.4 4 Sudoeste 9 Oeste 0 925.9 -0.8 27
2019-08-12 02:00:00 18.5 6 Oeste 14 Oeste 0 926.8 0.7 26
2019-08-12 01:00:00 19.1 9 Oeste 16 Oeste 0 926.3 0.7 25
2019-08-12 00:00:00 19.7 10 Oeste 23 Oeste 0 926.7 1.8 25
2019-08-11 23:00:00 21.7 11 Oeste 20 Oeste 0 926.1 2 22
2019-08-11 22:00:00 23 10 Oeste 28 Oeste 0 925.6 0.9 20
2019-08-11 21:00:00 24.7 19 Oeste 30 Oeste 0 924.9 0.5 19
2019-08-11 20:00:00 27.4 15 Oeste 33 Oeste 0 924.1 -0.6 18
2019-08-11 19:00:00 28.3 19 Oeste 34 Oeste 0 924.7 -0.6 19
2019-08-11 18:00:00 29.5 15 Oeste 27 Oeste 0 924.4 -1.4 18
2019-08-11 17:00:00 29.5 11 Oeste 29 Noroeste 0 924.7 -1.6 20
2019-08-11 16:00:00 28.9 11 Oeste 27 Oeste 0 925.3 -0.8 20
2019-08-11 15:00:00 29.5 14 Oeste 26 Oeste 0 925.8 -0.5 21
2019-08-11 14:00:00 28.1 7 Oeste 25 Oeste 0 926.3 0.3 23
2019-08-11 13:00:00 27.5 12 Sudoeste 26 Sudoeste 0 926.1 0.2 24
2019-08-11 12:00:00 26 17 Sur 27 Sudoeste 0 926.3 0.2 26
2019-08-11 11:00:00 26.2 4 Oeste 13 Sur 0 926 0.2 28
2019-08-11 10:00:00 24 3 Este 8 Sudeste 0 925.9 0.1 32
2019-08-11 09:00:00 20.8 3 Sudoeste 8 Oeste 0 926.1 0.6 36
2019-08-11 08:00:00 17.7 3 Oeste 14 Oeste 0 925.8 1 37
2019-08-11 07:00:00 17.7 12 Oeste 18 Oeste 0 925.8 0.7 35
2019-08-11 06:00:00 19.1 10 Oeste 22 Oeste 0 925.5 0.7 32
2019-08-11 05:00:00 20 12 Oeste 20 Oeste 0 924.8 -0.9 31
2019-08-11 04:00:00 20.8 10 Oeste 17 Oeste 0 925.1 -0.4 33
2019-08-11 03:00:00 22 0 Calma 5 Sur 0 924.8 -1.1 32
2019-08-11 02:00:00 23.5 4 Oeste 9 Oeste 0 925.7 0.4 30
2019-08-11 01:00:00 23.6 3 Oeste 15 Oeste 0 925.5 0.5 31
2019-08-11 00:00:00 25.4 14 Oeste 23 Sudoeste 0 925.9 1 30
2019-08-10 23:00:00 26.9 10 Oeste 24 Sudoeste 0 925.3 0.4 29
2019-08-10 22:00:00 27.1 16 Sur 23 Sur 0 925 0.2 28
2019-08-10 21:00:00 29.2 17 Sudoeste 26 Sudoeste 0 924.9 -0.1 25
2019-08-10 20:00:00 30.9 20 Sur 33 Sur 0 924.9 -0.7 22
2019-08-10 19:00:00 33.2 20 Sudoeste 35 Sudoeste 0 924.8 -1.9 21
2019-08-10 18:00:00 33.5 16 Sudoeste 34 Sudoeste 0 925 -2 21
2019-08-10 17:00:00 34.1 18 Sur 35 Sur 0 925.6 -2 22
2019-08-10 16:00:00 33.3 15 Sudoeste 28 Sudoeste 0 926.7 -1.6 23
2019-08-10 15:00:00 32.4 10 Sudoeste 24 Sudeste 0 927 -1.2 27
2019-08-10 14:00:00 29.3 8 Nordeste 15 Este 0 927.6 -0.6 34
2019-08-10 13:00:00 27.8 4 Noroeste 14 Sudeste 0 928.3 0 37
2019-08-10 12:00:00 27.3 6 Sudeste 15 Sur 0 928.2 0 41
2019-08-10 11:00:00 25 3 Nordeste 9 Este 0 928.2 0 45
2019-08-10 10:00:00 23.5 3 Norte 6 Norte 0 928.3 0.6 50
2019-08-10 09:00:00 21 0 Calma 6 Oeste 0 928.2 1 58
2019-08-10 08:00:00 19.4 2 Oeste 7 Noroeste 0 928.2 0.8 62
2019-08-10 07:00:00 18.9 3 Noroeste 8 Noroeste 0 927.7 0.7 64
2019-08-10 06:00:00 18.9 3 Sudoeste 8 Noroeste 0 927.2 -0.2 64
2019-08-10 05:00:00 20.1 3 Noroeste 13 Oeste 0 927.4 0.1 62
2019-08-10 04:00:00 20.3 8 Oeste 13 Oeste 0 927 -0.5 62
2019-08-10 03:00:00 21 7 Oeste 14 Oeste 0 927.4 0.2 58
2019-08-10 02:00:00 22.5 6 Oeste 12 Oeste 0 927.3 0.7 52
2019-08-10 01:00:00 23.8 6 Oeste 18 Oeste 0 927.5 1.7 49
2019-08-10 00:00:00 25.4 10 Oeste 19 Oeste 0 927.2 2.1 40
2019-08-09 23:00:00 26.3 11 Sudoeste 25 Sudoeste 0 926.6 1.6 32
2019-08-09 22:00:00 27.6 17 Sudoeste 24 Sudoeste 0 925.8 0.9 30
2019-08-09 21:00:00 29.5 18 Sudoeste 30 Sudoeste 0 925.1 0.1 28
2019-08-09 20:00:00 31.3 20 Sudoeste 29 Sudoeste 0 925 -0.4 27
2019-08-09 19:00:00 33.3 18 Sudoeste 33 Sur 0 924.9 -0.9 26
2019-08-09 18:00:00 33.3 21 Sudoeste 36 Sur 0 925 -1.1 25
2019-08-09 17:00:00 33.7 15 Sudoeste 30 Sudoeste 0 925.4 -1.1 25
2019-08-09 16:00:00 33.4 12 Sudoeste 32 Oeste 0 925.8 -1.3 25
2019-08-09 15:00:00 33 10 Oeste 28 Oeste 0 926.1 -0.7 27
2019-08-09 14:00:00 31.9 5 Oeste 24 Oeste 0 926.5 0.1 29
2019-08-09 13:00:00 29.9 13 Sudoeste 26 Oeste 0 927.1 0.4 29
2019-08-09 12:00:00 29.3 5 Sudoeste 16 Oeste 0 926.8 0.1 31
2019-08-09 11:00:00 26.6 4 Nordeste 11 Este 0 926.4 0.4 37
2019-08-09 10:00:00 24.7 3 Norte 7 Noroeste 0 926.7 0.8 38
2019-08-09 09:00:00 22.2 3 Nordeste 6 Nordeste 0 926.7 1.3 37
2019-08-09 08:00:00 20.2 3 Nordeste 7 Este 0 926 0.4 39
2019-08-09 07:00:00 19.5 2 Nordeste 4 Nordeste 0 925.9 0.6 34
2019-08-09 06:00:00 20.4 0 Calma 5 Nordeste 0 925.4 -0.1 32
2019-08-09 05:00:00 21.3 0 Calma 7 Sudoeste 0 925.6 0.5 31
2019-08-09 04:00:00 22 5 Oeste 18 Oeste 0 925.3 0.9 29
2019-08-09 03:00:00 23 16 Oeste 23 Oeste 0 925.5 1.4 25
2019-08-09 02:00:00 24.4 13 Oeste 37 Sudoeste 0 925.1 0.7 24
2019-08-09 01:00:00 25.3 19 Sudoeste 32 Sudoeste 0 924.4 0.6 24
2019-08-09 00:00:00 26.6 21 Sudoeste 28 Sudoeste 0 924.1 0.9 22
2019-08-08 23:00:00 26.2 9 Sur 21 Sur 0 924.4 1.4 20
2019-08-08 22:00:00 27.2 10 Sudoeste 27 Sur 0 923.8 0.6 19
2019-08-08 21:00:00 30.2 19 Sudoeste 29 Sudoeste 0 923.2 0 18
2019-08-08 20:00:00 32.4 20 Sudoeste 32 Sudoeste 0 923 -0.2 19
2019-08-08 19:00:00 33.6 22 Sudoeste 37 Sur 0 923.2 -0.8 18
2019-08-08 18:00:00 34.4 17 Sudoeste 33 Sudoeste 0 923.2 -1 19
2019-08-08 17:00:00 34.6 18 Sudoeste 35 Sur 0 923.2 -1.6 20
2019-08-08 16:00:00 33.7 17 Sudoeste 34 Sur 0 924 -0.9 22
2019-08-08 15:00:00 34.6 5 Sudoeste 26 Oeste 0 924.2 -1.2 23
2019-08-08 14:00:00 32.3 10 Sudoeste 26 Sudoeste 0 924.8 -0.5 25
2019-08-08 13:00:00 29.9 3 Sudeste 16 Sudeste 0 924.9 -0.1 26
2019-08-08 12:00:00 29.4 4 Oeste 20 Oeste 0 925.4 0.5 28
2019-08-08 11:00:00 27.2 2 Norte 7 Norte 0 925.3 0.2 30
2019-08-08 10:00:00 25.4 2 Noroeste 7 Noroeste 0 925 0.3 33
2019-08-08 09:00:00 23.7 0 Calma 4 Norte 0 924.9 0.3 36
2019-08-08 08:00:00 18.7 0 Calma 0 Calma 0 925.1 0.4 41
2019-08-08 07:00:00 18.4 0 Calma 4 Sur 0 924.7 -0.1 41
2019-08-08 06:00:00 18.9 2 Sudoeste 3 Sudoeste 0 924.6 0.1 39
2019-08-08 05:00:00 20.3 2 Norte 4 Norte 0 924.7 -0.1 37
2019-08-08 04:00:00 21.2 2 Noroeste 6 Oeste 0 924.8 -0.2 36
2019-08-08 03:00:00 22 5 Oeste 8 Oeste 0 924.5 -0.3 35
2019-08-08 02:00:00 22.4 6 Oeste 9 Oeste 0 924.8 -0.4 34
2019-08-08 01:00:00 22.1 7 Sudoeste 12 Sudoeste 0 925 0.7 33
2019-08-08 00:00:00 23.2 5 Oeste 18 Oeste 0 924.8 0.9 32
2019-08-07 23:00:00 24.8 11 Oeste 21 Oeste 0 925.2 1.3 29
2019-08-07 22:00:00 25.3 3 Oeste 12 Noroeste 0 924.3 0.9 28
2019-08-07 21:00:00 26.9 7 Oeste 23 Noroeste 0 923.9 0.2 26
2019-08-07 20:00:00 28.2 14 Noroeste 24 Noroeste 0 923.9 0.4 24
2019-08-07 19:00:00 29.6 9 Oeste 22 Oeste 0 923.4 -0.7 23
2019-08-07 18:00:00 30.2 12 Oeste 27 Oeste 0 923.7 -0.4 22
2019-08-07 17:00:00 30.4 10 Noroeste 23 Oeste 0 923.5 -0.9 22
2019-08-07 16:00:00 31.2 11 Oeste 41 Oeste 0 924.1 0.1 21
2019-08-07 15:00:00 30.8 7 Noroeste 32 Oeste 0 924.1 0 22
2019-08-07 14:00:00 31.2 12 Sudoeste 30 Oeste 0 924.4 0.5 24
2019-08-07 13:00:00 30.6 9 Oeste 30 Sudoeste 0 924 0 24
2019-08-07 12:00:00 29.1 13 Oeste 26 Oeste 0 924.1 0.8 26
2019-08-07 11:00:00 27.9 3 Sur 13 Sudeste 0 923.9 1.1 31
2019-08-07 10:00:00 25.5 4 Noroeste 8 Noroeste 0 924 1.5 33
2019-08-07 09:00:00 21.7 0 Calma 5 Norte 0 923.3 0.8 30
2019-08-07 08:00:00 19.6 2 Nordeste 7 Oeste 0 922.8 0.2 35
2019-08-07 07:00:00 19.9 3 Sudoeste 6 Oeste 0 922.5 0.1 35
2019-08-07 06:00:00 19.5 4 Sudoeste 10 Oeste 0 922.5 -0.4 34
2019-08-07 05:00:00 20.8 8 Oeste 13 Noroeste 0 922.6 0.1 30
2019-08-07 04:00:00 22.9 0 Calma 5 Sur 0 922.4 -0.3 29
2019-08-07 03:00:00 23.1 0 Calma 4 Este 0 922.9 0.1 25
2019-08-07 02:00:00 23.7 0 Calma 19 Oeste 0 922.5 0 20
2019-08-07 01:00:00 24.8 11 Oeste 19 Sudoeste 0 922.7 1 19
2019-08-07 00:00:00 26.1 15 Oeste 24 Sudoeste 0 922.8 1.6 16
2019-08-06 23:00:00 27.1 19 Sudoeste 25 Sudoeste 0 922.5 1.1 14
2019-08-06 22:00:00 27.1 14 Sudoeste 18 Sudoeste 0 921.7 0.4 13
2019-08-06 21:00:00 29.1 14 Sur 28 Sur 0 921.2 -0.6 12
2019-08-06 20:00:00 33.5 19 Sudoeste 35 Sudoeste 0 921.4 -0.8 12
2019-08-06 19:00:00 34.2 25 Sudoeste 36 Sudoeste 0 921.3 -1.6 13
2019-08-06 18:00:00 35 19 Sudoeste 38 Sudoeste 0 921.8 -1.9 13
2019-08-06 17:00:00 35.2 15 Sudoeste 36 Sur 0 922.2 -1.8 15
2019-08-06 16:00:00 33.9 22 Sudoeste 33 Sudoeste 0 922.9 -1.2 16
2019-08-06 15:00:00 34 16 Sur 34 Sur 0 923.7 -0.9 19
2019-08-06 14:00:00 33.2 23 Sur 45 Sudeste 0 924 -1 19
2019-08-06 13:00:00 33 0 Calma 18 Sudeste 0 924.1 -0.5 20
2019-08-06 12:00:00 31.4 7 Sudeste 22 Oeste 0 924.6 0.3 22
2019-08-06 11:00:00 29.2 3 Norte 10 Norte 0 925 1 23
2019-08-06 10:00:00 27 3 Sur 10 Sudeste 0 924.6 0.7 25
2019-08-06 09:00:00 23.1 4 Nordeste 13 Sudeste 0 924.3 0 29
2019-08-06 08:00:00 20.4 6 Este 10 Este 0 924 -0.1 28
2019-08-06 07:00:00 19.8 3 Este 8 Este 0 923.9 0.3 26
2019-08-06 06:00:00 20.4 4 Nordeste 5 Nordeste 0 924.3 0.2 25
2019-08-06 05:00:00 22 0 Calma 7 Este 0 924.1 0 25
2019-08-06 04:00:00 22.9 4 Norte 7 Oeste 0 923.6 -0.4 24
2019-08-06 03:00:00 23.4 7 Oeste 18 Oeste 0 924.1 0.3 23
2019-08-06 02:00:00 25 13 Oeste 18 Oeste 0 924.1 0.5 20
2019-08-06 01:00:00 26.4 5 Oeste 15 Oeste 0 924 1.1 19
2019-08-06 00:00:00 27.5 8 Oeste 17 Sudoeste 0 923.8 1.9 19
2019-08-05 23:00:00 27.8 10 Sudoeste 22 Sudoeste 0 923.6 2 21
2019-08-05 22:00:00 29.2 12 Oeste 28 Sudoeste 0 922.9 1.1 21
2019-08-05 21:00:00 31 18 Sudoeste 30 Sudoeste 0 921.9 -0.3 19
2019-08-05 20:00:00 33.5 19 Sudoeste 32 Sudoeste 0 921.6 -0.9 19
2019-08-05 19:00:00 34.9 14 Sudoeste 32 Sudoeste 0 921.8 -1.2 17
2019-08-05 18:00:00 35.7 16 Sudoeste 34 Sudoeste 0 922.2 -1.2 17
2019-08-05 17:00:00 36 10 Sudoeste 29 Sudoeste 0 922.5 -1.8 17
2019-08-05 16:00:00 35.4 14 Sudoeste 31 Sudoeste 0 923 -1.8 18
2019-08-05 15:00:00 35.4 8 Sur 27 Sudoeste 0 923.4 -1.7 18
2019-08-05 14:00:00 33.7 5 Noroeste 26 Noroeste 0 924.3 -0.7 19
2019-08-05 13:00:00 32.8 5 Sur 18 Sudeste 0 924.8 -0.5 22
2019-08-05 12:00:00 31 4 Noroeste 14 Sur 0 925.1 -0.2 24
2019-08-05 11:00:00 28.8 3 Norte 7 Este 0 925 -0.4 26
2019-08-05 10:00:00 26.4 0 Calma 6 Sur 0 925.3 0.7 28
2019-08-05 09:00:00 23.2 0 Calma 6 Oeste 0 925.3 0.9 29
2019-08-05 08:00:00 19.5 3 Nordeste 7 Nordeste 0 925.4 0.5 32
2019-08-05 07:00:00 19.4 5 Nordeste 7 Nordeste 0 924.6 -0.2 31
2019-08-05 06:00:00 20.7 4 Nordeste 6 Nordeste 0 924.4 -0.6 29
2019-08-05 05:00:00 21.2 0 Calma 2 Sudoeste 0 924.9 -0.2 29
2019-08-05 04:00:00 23.1 0 Calma 3 Noroeste 0 924.8 -0.2 28
2019-08-05 03:00:00 23.7 0 Calma 6 Sudoeste 0 925 -0.1 27
2019-08-05 02:00:00 23.5 4 Sudoeste 19 Oeste 0 925.1 0.7 27
2019-08-05 01:00:00 25.5 6 Oeste 11 Oeste 0 925 1.3 26
2019-08-05 00:00:00 26.7 8 Oeste 17 Oeste 0 925.1 1.7 25
2019-08-04 23:00:00 27.3 12 Sudoeste 23 Oeste 0 924.4 1.7 24
2019-08-04 22:00:00 28.7 16 Sudoeste 25 Sudoeste 0 923.7 1.1 22
2019-08-04 21:00:00 30.8 18 Sur 27 Sur 0 923.4 0.8 21
2019-08-04 20:00:00 33.4 15 Sudoeste 25 Sudoeste 0 922.7 -0.6 18
2019-08-04 19:00:00 34.7 15 Sudoeste 26 Sudoeste 0 922.6 -1.1 18
2019-08-04 18:00:00 35.1 10 Sudoeste 26 Sudoeste 0 922.6 -1.2 18
2019-08-04 17:00:00 35.2 9 Oeste 26 Sudoeste 0 923.3 -1.1 19
2019-08-04 16:00:00 34.5 10 Sudoeste 29 Sur 0 923.7 -1.7 20
2019-08-04 15:00:00 33.8 14 Sudoeste 31 Sur 0 923.8 -1.3 22
2019-08-04 14:00:00 33.6 11 Sudeste 23 Este 0 924.4 -0.8 23
2019-08-04 13:00:00 32.6 8 Sudeste 18 Sudeste 0 925.4 0.2 23
2019-08-04 12:00:00 30.6 3 Sudeste 19 Sur 0 925.1 -0.1 23
2019-08-04 11:00:00 29.5 4 Sudeste 13 Este 0 925.2 0.6 25
2019-08-04 10:00:00 26.8 4 Este 9 Este 0 925.2 0.9 27
2019-08-04 09:00:00 23.3 4 Nordeste 8 Nordeste 0 925.2 0.8 31
2019-08-04 08:00:00 19.9 6 Nordeste 8 Nordeste 0 924.6 0.2 32
2019-08-04 07:00:00 19.9 4 Nordeste 9 Este 0 924.3 0.2 32
2019-08-04 06:00:00 20.9 5 Este 10 Este 0 924.4 0.3 29
2019-08-04 05:00:00 21.3 5 Nordeste 8 Este 0 924.4 0.2 29
2019-08-04 04:00:00 22.9 0 Calma 8 Nordeste 0 924.1 0 28
2019-08-04 03:00:00 23 4 Oeste 10 Sur 0 924.1 0.4 28
2019-08-04 02:00:00 23.4 2 Sudoeste 11 Oeste 0 924.2 0.8 27
2019-08-04 01:00:00 25.5 3 Oeste 9 Oeste 0 924.1 0.9 26
2019-08-04 00:00:00 26.5 7 Oeste 22 Oeste 0 923.7 1.6 24
2019-08-03 23:00:00 27.2 15 Oeste 25 Sudoeste 0 923.4 1.1 22
2019-08-03 22:00:00 28 13 Sudoeste 25 Sudoeste 0 923.2 1.1 20
2019-08-03 21:00:00 30.4 18 Sudoeste 27 Sur 0 922.1 -0.3 18
2019-08-03 20:00:00 33.6 18 Sur 30 Sudoeste 0 922.3 -0.8 17
2019-08-03 19:00:00 34.5 14 Sudoeste 31 Sur 0 922.1 -1.4 16
2019-08-03 18:00:00 35 14 Sudoeste 28 Sudoeste 0 922.4 -1.4 17
2019-08-03 17:00:00 35.5 18 Sudoeste 33 Sudoeste 0 923.1 -0.9 18
2019-08-03 16:00:00 35.3 13 Sudoeste 32 Sur 0 923.5 -1 18
2019-08-03 15:00:00 35 8 Oeste 24 Nordeste 0 923.8 -1.1 19
2019-08-03 14:00:00 34.1 5 Sudoeste 14 Sur 0 924 -1.3 19
2019-08-03 13:00:00 32.4 5 Este 15 Sudoeste 0 924.5 -0.3 19
2019-08-03 12:00:00 30.6 4 Sur 11 Nordeste 0 924.9 0 21
2019-08-03 11:00:00 29.8 5 Nordeste 11 Nordeste 0 925.3 1.1 22
2019-08-03 10:00:00 27.7 5 Este 12 Este 0 924.8 0.7 24
2019-08-03 09:00:00 23 0 Calma 7 Norte 0 924.9 1.2 27
2019-08-03 08:00:00 20.2 6 Este 12 Este 0 924.2 0.8 28
2019-08-03 07:00:00 19.7 6 Nordeste 8 Norte 0 924.1 0.4 28
2019-08-03 06:00:00 19 0 Calma 6 Norte 0 923.7 0.1 27
2019-08-03 05:00:00 21.1 0 Calma 4 Sudeste 0 923.4 -0.4 26
2019-08-03 04:00:00 22 3 Norte 6 Norte 0 923.7 -0.3 25
2019-08-03 03:00:00 24.2 2 Sudeste 7 Nordeste 0 923.6 -0.3 23
2019-08-03 02:00:00 24.5 3 Nordeste 8 Sudoeste 0 923.8 0 23
2019-08-03 01:00:00 23.3 7 Sudoeste 18 Oeste 0 924 0.8 22
2019-08-03 00:00:00 26.8 12 Noroeste 16 Noroeste 0 923.9 1.3 21
2019-08-02 23:00:00 28 10 Oeste 26 Sudoeste 0 923.8 1.6 19
2019-08-02 22:00:00 29.4 11 Oeste 19 Oeste 0 923.2 1 19
2019-08-02 21:00:00 31.1 17 Sudoeste 28 Sur 0 922.6 -0.3 17
2019-08-02 20:00:00 33.5 22 Sudoeste 33 Sudoeste 0 922.2 -0.6 16
2019-08-02 19:00:00 35.6 9 Sur 33 Este 0 922.2 -1.1 16
2019-08-02 18:00:00 36 0 Calma 26 Sudoeste 0 922.9 -0.9 16
2019-08-02 17:00:00 36.1 0 Calma 18 Sudoeste 0 922.8 -1.6 17
2019-08-02 16:00:00 35 7 Norte 25 Noroeste 0 923.3 -1.5 18
2019-08-02 15:00:00 34.3 4 Norte 28 Noroeste 0 923.8 -1.6 18
2019-08-02 14:00:00 34 5 Sur 19 Sudeste 0 924.4 -0.6 19
2019-08-02 13:00:00 32.3 10 Sudeste 19 Sudeste 0 924.8 -0.4 21
2019-08-02 12:00:00 30.6 3 Norte 12 Nordeste 0 925.4 0.7 22
2019-08-02 11:00:00 28.9 2 Norte 8 Noroeste 0 925 0.6 24
2019-08-02 10:00:00 26.6 3 Oeste 7 Oeste 0 925.2 0.9 26
2019-08-02 09:00:00 23.2 0 Calma 5 Norte 0 924.7 0.9 29
2019-08-02 08:00:00 20.5 3 Nordeste 6 Nordeste 0 924.4 0.4 29
2019-08-02 07:00:00 19.6 4 Nordeste 6 Nordeste 0 924.3 0.3 29
2019-08-02 06:00:00 19.4 5 Sudoeste 9 Oeste 0 923.8 -0.3 29
2019-08-02 05:00:00 20.8 5 Oeste 12 Oeste 0 924 -0.1 27
2019-08-02 04:00:00 22.8 9 Oeste 13 Oeste 0 924 -0.4 26
2019-08-02 03:00:00 21.3 4 Sudoeste 7 Oeste 0 924.1 0.1 28
2019-08-02 02:00:00 22.2 4 Sudoeste 9 Oeste 0 924.1 0.4 28
2019-08-02 01:00:00 24.6 4 Oeste 13 Oeste 0 924.4 1.7 25
2019-08-02 00:00:00 25.6 7 Oeste 15 Oeste 0 924 2.3 27
2019-08-01 23:00:00 26.9 8 Oeste 15 Sudoeste 0 923.7 2.4 29
2019-08-01 22:00:00 28.9 7 Oeste 27 Sudoeste 0 922.7 1.7 25
2019-08-01 21:00:00 30.3 15 Sudoeste 27 Sur 0 921.7 0.3 25
2019-08-01 20:00:00 31.8 15 Sur 28 Sur 0 921.3 -0.6 24
2019-08-01 19:00:00 33.7 11 Sudoeste 25 Sudoeste 0 921 -1 22
2019-08-01 18:00:00 33.7 8 Noroeste 21 Oeste 0 921.4 -1.3 21
2019-08-01 17:00:00 34.5 7 Sudoeste 24 Oeste 0 921.9 -1.4 21
2019-08-01 16:00:00 33.2 4 Sudoeste 21 Sudoeste 0 922 -1.7 22
2019-08-01 15:00:00 32.1 5 Norte 19 Oeste 0 922.7 -0.6 25
2019-08-01 14:00:00 32.1 6 Oeste 17 Sudoeste 0 923.3 0.2 24
2019-08-01 13:00:00 30.5 6 Oeste 19 Noroeste 0 923.7 0.8 25
2019-08-01 12:00:00 29.4 6 Oeste 15 Oeste 0 923.3 0.7 27
2019-08-01 11:00:00 27.4 3 Norte 9 Noroeste 0 923.1 0.9 34
2019-08-01 10:00:00 25.7 2 Norte 9 Noroeste 0 922.9 0.9 37
2019-08-01 09:00:00 23.5 2 Noroeste 6 Noroeste 0 922.6 0.4 45
2019-08-01 08:00:00 21.2 2 Sudeste 10 Sudeste 0 922.2 0.2 53
2019-08-01 07:00:00 19.5 5 Sudeste 17 Sur 0 922 0.3 55
2019-08-01 06:00:00 19.4 8 Sudoeste 14 Sudoeste 0 922.2 0.1 56
2019-08-01 05:00:00 21.1 10 Sudoeste 24 Sur 0 922 0.4 49
2019-08-01 04:00:00 21.9 16 Sur 25 Sudoeste 0 921.7 0 45
2019-08-01 03:00:00 22.3 10 Sur 23 Sur 0 922.1 0.4 41
2019-08-01 02:00:00 23.6 7 Sur 14 Sur 0 921.6 0.4 33
2019-08-01 01:00:00 24.9 8 Sur 15 Sudeste 0 921.7 1 30
2019-08-01 00:00:00 26.6 13 Sudeste 23 Sur 0 921.7 0.9 27
2019-07-31 23:00:00 27.2 13 Sudoeste 19 Sudoeste 0 921.2 1 26
2019-07-31 22:00:00 28.1 8 Sudoeste 19 Sudeste 0 920.7 0.2 25
2019-07-31 21:00:00 31 13 Sur 18 Sur 0 920.8 0 23
2019-07-31 20:00:00 33.9 4 Sudeste 18 Sur 0 920.2 -1.1 22
2019-07-31 19:00:00 33.6 8 Sur 26 Sur 0 920.5 -1.1 22
2019-07-31 18:00:00 34.2 17 Sur 27 Sudeste 0 920.8 -1.3 22
2019-07-31 17:00:00 34.2 12 Sudeste 35 Sudeste 0 921.3 -1.6 22
2019-07-31 16:00:00 33.9 13 Sudeste 26 Sudeste 0 921.6 -1.5 21
2019-07-31 15:00:00 33.7 11 Sur 23 Sur 0 922.1 -1.4 23
2019-07-31 14:00:00 33.1 12 Sudeste 24 Sudeste 0 922.9 -0.4 24
2019-07-31 13:00:00 31.6 9 Sur 27 Sudeste 0 923.1 -0.2 25
2019-07-31 12:00:00 31.1 13 Sudeste 24 Sudeste 0 923.5 0.2 27
2019-07-31 11:00:00 28.3 12 Sudeste 19 Sur 0 923.3 0.5 30
2019-07-31 10:00:00 26.1 15 Sudeste 21 Sudeste 0 923.3 0.9 32
2019-07-31 09:00:00 22 5 Este 8 Este 0 923.3 1 27
2019-07-31 08:00:00 18.2 4 Sudoeste 11 Norte 0 922.8 -0.3 27
2019-07-31 07:00:00 19.7 6 Nordeste 22 Este 0 922.4 -0.5 25
2019-07-31 06:00:00 20.5 12 Este 20 Este 0 922.3 -0.1 22
2019-07-31 05:00:00 20.4 3 Sudeste 7 Oeste 0 923.1 0.1 22
2019-07-31 04:00:00 20.7 5 Oeste 9 Sudoeste 0 922.9 -0.3 22
2019-07-31 03:00:00 21.3 9 Oeste 12 Oeste 0 922.4 -0.6 20
2019-07-31 02:00:00 22.5 9 Oeste 15 Oeste 0 923 -0.5 22
2019-07-31 01:00:00 22.3 9 Sudoeste 12 Oeste 0 923.2 0.9 24
2019-07-31 00:00:00 23.3 4 Sudoeste 10 Sudoeste 0 923 1.4 24
2019-07-30 23:00:00 26.8 5 Noroeste 10 Nordeste 0 923.5 1.9 22
2019-07-30 22:00:00 28.5 9 Nordeste 18 Nordeste 0 922.3 0.9 21
2019-07-30 21:00:00 30.4 12 Norte 18 Norte 0 921.6 -0.3 19
2019-07-30 20:00:00 31.8 5 Norte 22 Norte 0 921.6 -0.7 19
2019-07-30 19:00:00 33.3 6 Norte 17 Norte 0 921.4 -1.4 19
2019-07-30 18:00:00 33 8 Noroeste 24 Norte 0 921.9 -1.5 19
2019-07-30 17:00:00 32.7 3 Sudeste 21 Nordeste 0 922.3 -1.9 20
2019-07-30 16:00:00 32.7 4 Noroeste 21 Nordeste 0 922.8 -1.6 20
2019-07-30 15:00:00 30.9 0 Calma 22 Norte 0 923.4 -1.1 22
2019-07-30 14:00:00 29.7 9 Norte 21 Norte 0 924.2 -0.2 22
2019-07-30 13:00:00 28.3 8 Norte 24 Norte 0 924.4 -0.2 23
2019-07-30 12:00:00 27.2 6 Nordeste 15 Norte 0 924.5 -0.1 25
2019-07-30 11:00:00 25.8 3 Nordeste 11 Nordeste 0 924.4 -0.2 26
2019-07-30 10:00:00 23.2 4 Norte 10 Norte 0 924.6 0.3 29
2019-07-30 09:00:00 21.3 5 Nordeste 9 Nordeste 0 924.6 0.7 32
2019-07-30 08:00:00 19.8 0 Calma 5 Nordeste 0 924.6 1 36
2019-07-30 07:00:00 17.9 4 Nordeste 9 Oeste 0 924.3 0.8 38
2019-07-30 06:00:00 16.5 3 Sudoeste 10 Noroeste 0 923.9 0.2 39
2019-07-30 05:00:00 19.5 4 Noroeste 8 Oeste 0 923.6 0.1 36
2019-07-30 04:00:00 20.1 6 Oeste 10 Oeste 0 923.5 0.1 35
2019-07-30 03:00:00 21.3 6 Oeste 12 Oeste 0 923.7 0.6 34
2019-07-30 02:00:00 21.9 6 Oeste 11 Oeste 0 923.5 0.2 32
2019-07-30 01:00:00 21.6 9 Oeste 13 Oeste 0 923.4 1.2 30
2019-07-30 00:00:00 22.8 9 Oeste 12 Oeste 0 923.1 1.6 26
2019-07-29 23:00:00 24.4 6 Oeste 13 Oeste 0 923.3 2.5 23
2019-07-29 22:00:00 26.3 6 Noroeste 21 Noroeste 0 922.2 1.4 21
2019-07-29 21:00:00 28.6 14 Oeste 29 Oeste 0 921.5 0.3 18
2019-07-29 20:00:00 30.3 15 Oeste 36 Noroeste 0 920.8 -0.4 16
2019-07-29 19:00:00 31.5 14 Oeste 30 Oeste 0 920.8 -0.4 17
2019-07-29 18:00:00 32.4 10 Noroeste 33 Sudoeste 0 921.2 -1.2 19
2019-07-29 17:00:00 31.3 9 Noroeste 28 Sudoeste 0 921.2 -0.9 23
2019-07-29 16:00:00 32.6 6 Sur 24 Oeste 0 921.2 -1.2 23
2019-07-29 15:00:00 30.7 9 Noroeste 32 Sudoeste 0 922.4 -0.1 25
2019-07-29 14:00:00 30.1 6 Sudoeste 31 Oeste 0 922.1 -0.4 26
2019-07-29 13:00:00 29.4 8 Oeste 25 Oeste 0 922.4 0 26
2019-07-29 12:00:00 27.8 4 Oeste 15 Noroeste 0 922.5 0.5 29
2019-07-29 11:00:00 27.1 0 Calma 12 Noroeste 0 922.5 0.7 31
2019-07-29 10:00:00 25.8 4 Oeste 14 Oeste 0 922.4 0.9 33
2019-07-29 09:00:00 23.7 5 Sudeste 10 Sudeste 0 922 1.2 40
2019-07-29 08:00:00 19.9 4 Este 7 Nordeste 0 921.8 1 47
2019-07-29 07:00:00 18 0 Calma 6 Nordeste 0 921.5 0.9 44
2019-07-29 06:00:00 18.6 4 Nordeste 6 Nordeste 0 920.8 -0.3 39
2019-07-29 05:00:00 19.5 0 Calma 4 Sudoeste 0 920.8 -0.1 39
2019-07-29 04:00:00 20.1 0 Calma 5 Oeste 0 920.6 -0.6 37
2019-07-29 03:00:00 21 3 Oeste 9 Oeste 0 921.1 0.2 36
2019-07-29 02:00:00 20.8 7 Oeste 9 Oeste 0 920.9 0.3 35
2019-07-29 01:00:00 22.3 3 Sudoeste 7 Sudoeste 0 921.2 1.1 32
2019-07-29 00:00:00 22.6 5 Sudoeste 10 Sur 0 920.9 1.3 31
2019-07-28 23:00:00 24.5 7 Sudoeste 11 Sudoeste 0 920.6 1.3 29
2019-07-28 22:00:00 25.4 3 Noroeste 16 Noroeste 0 920.1 1.3 26
2019-07-28 21:00:00 28.2 5 Oeste 13 Noroeste 0 919.6 0.9 26
2019-07-28 20:00:00 28.9 5 Noroeste 16 Oeste 0 919.3 0 25
2019-07-28 19:00:00 29.4 7 Oeste 28 Nordeste 0 918.8 -0.9 25
2019-07-28 18:00:00 30.2 6 Sur 24 Sudoeste 0 918.7 -1.3 25
2019-07-28 17:00:00 29 2 Norte 22 Sudeste 0 919.3 -1.2 26
2019-07-28 16:00:00 28.9 4 Nordeste 14 Sur 0 919.7 -1.3 27
2019-07-28 15:00:00 27.8 8 Norte 18 Nordeste 0 920 -1.3 29
2019-07-28 14:00:00 26.7 4 Noroeste 20 Sudeste 0 920.5 -1 32
2019-07-28 13:00:00 26.4 5 Este 17 Este 0 921 -0.4 33
2019-07-28 12:00:00 24.5 8 Este 15 Este 0 921.3 -0.4 39
2019-07-28 11:00:00 23.1 4 Este 12 Este 0 921.5 0.1 46
2019-07-28 10:00:00 20.6 5 Norte 9 Nordeste 0 921.4 0.3 53
2019-07-28 09:00:00 19.9 2 Noroeste 5 Noroeste 0 921.7 1.2 55
2019-07-28 08:00:00 16.5 2 Sur 4 Sur 0 921.4 0.7 63
2019-07-28 07:00:00 15.7 0 Calma 6 Este 0 921.1 0.6 65
2019-07-28 06:00:00 15.3 0 Calma 4 Noroeste 0 920.5 -0.1 64
2019-07-28 05:00:00 16.8 0 Calma 5 Sudoeste 0 920.7 -0.2 61
2019-07-28 04:00:00 16.7 3 Oeste 9 Oeste 0 920.5 -0.4 63
2019-07-28 03:00:00 17.9 6 Oeste 10 Oeste 0 920.6 -0.5 60
2019-07-28 02:00:00 18.3 8 Oeste 13 Oeste 0 920.9 0.1 57
2019-07-28 01:00:00 19.3 7 Oeste 13 Oeste 0 920.9 0.7 49
2019-07-28 00:00:00 19.7 6 Noroeste 19 Sudoeste 0 921.1 1.2 48
2019-07-27 23:00:00 20.2 14 Sudoeste 25 Oeste 0 920.8 1 46
2019-07-26 12:00:00 27.1 20 Sudoeste 32 Sudoeste 0 922.8 -0.4 35
2019-07-26 11:00:00 25.9 17 Sudoeste 23 Oeste 0 923.2 0.2 36
2019-07-26 10:00:00 26.1 5 Oeste 13 Sudoeste 0 923.2 0.3 39
2019-07-26 09:00:00 24.3 5 Oeste 10 Oeste 0 923.2 0.3 41
2019-07-26 08:00:00 21.9 3 Sudoeste 6 Sudoeste 0 923 0 40
2019-07-26 07:00:00 21.7 4 Sudoeste 12 Oeste 0 922.9 0.1 39
2019-07-26 06:00:00 22.7 5 Oeste 11 Oeste 0 922.9 -0.2 37
2019-07-26 05:00:00 23.3 6 Oeste 14 Sudoeste 0 923 -0.5 36
2019-07-26 04:00:00 23.5 0 Calma 12 Sudoeste 0 922.8 -1.1 35
2019-07-26 03:00:00 23.7 6 Sudoeste 11 Sur 0 923.1 -0.6 34
2019-07-26 02:00:00 23.8 10 Sur 14 Sur 0 923.5 0.3 32
2019-07-26 01:00:00 24.2 5 Sur 19 Oeste 0 923.9 1.1 26
2019-07-26 00:00:00 25.8 15 Oeste 23 Sudoeste 0 923.7 1.3 24
2019-07-25 23:00:00 27 16 Sudoeste 22 Sudoeste 0 923.2 1.4 22
2019-07-25 22:00:00 27.1 12 Sudoeste 22 Sudoeste 0 922.8 1 22
2019-07-25 21:00:00 30.4 18 Sudoeste 35 Sudoeste 0 922.4 0.3 21
2019-07-25 20:00:00 32.4 23 Sudoeste 34 Sudoeste 0 921.8 -0.9 21
2019-07-25 19:00:00 33.9 22 Sur 32 Sur 0 921.8 -1.4 19
2019-07-25 18:00:00 35 14 Sur 35 Sur 0 922.1 -1.3 19
2019-07-25 17:00:00 34.7 21 Sur 33 Sur 0 922.7 -1.4 19
2019-07-25 16:00:00 34.9 15 Sur 32 Sur 0 923.2 -1.3 22
2019-07-25 15:00:00 34.1 11 Sudoeste 31 Sur 0 923.4 -1.4 24
2019-07-25 14:00:00 34.2 10 Sudeste 24 Sudeste 0 924.1 -0.9 25
2019-07-25 13:00:00 32.9 6 Sur 20 Sudeste 0 924.5 -0.5 28
2019-07-25 12:00:00 30.7 6 Nordeste 17 Sudeste 0 924.8 0.1 30
2019-07-25 11:00:00 29.7 9 Sudeste 27 Sudeste 0 925 0.3 35
2019-07-25 10:00:00 28.1 12 Sudeste 20 Sudeste 0 925 0.6 37
2019-07-25 09:00:00 25.2 13 Sudeste 23 Sudeste 0 924.7 0.8 42
2019-07-25 08:00:00 22.6 14 Sudeste 20 Sudeste 0 924.7 0.6 44
2019-07-25 07:00:00 22.6 5 Este 7 Nordeste 0 924.4 0.2 42
2019-07-25 06:00:00 23.3 4 Nordeste 7 Norte 0 923.9 -0.4 39
2019-07-25 05:00:00 24.8 7 Oeste 20 Sudoeste 0 924.1 -0.5 39
2019-07-25 04:00:00 23.5 9 Sudoeste 19 Sudoeste 0 924.2 -0.5 39
2019-07-25 03:00:00 24.7 15 Sudoeste 26 Oeste 0 924.3 0 35
2019-07-25 02:00:00 25.4 11 Sudoeste 22 Sur 0 924.6 1 32
2019-07-25 01:00:00 26.7 15 Sur 21 Sudeste 0 924.7 1.8 27
2019-07-25 00:00:00 28.4 12 Sudeste 28 Sudoeste 0 924.3 1.8 25
2019-07-24 23:00:00 29.5 17 Sudoeste 28 Oeste 0 923.6 1.5 25
2019-07-24 22:00:00 30 15 Sudoeste 24 Sudoeste 0 922.9 0.8 26
2019-07-24 21:00:00 31.6 20 Sudoeste 28 Sudoeste 0 922.5 0.1 24
2019-07-24 20:00:00 34.1 20 Sur 32 Sur 0 922.1 -0.9 20
2019-07-24 19:00:00 35.6 20 Sudoeste 33 Sur 0 922.1 -1.5 19
2019-07-24 18:00:00 36.2 13 Sudeste 43 Sudoeste 0 922.4 -1.7 19
2019-07-24 17:00:00 36 17 Sudeste 41 Sur 0 923 -1.5 19
2019-07-24 16:00:00 36.3 21 Sur 40 Sudoeste 0 923.6 -1.4 19
2019-07-24 15:00:00 35.4 10 Sur 53 Sudoeste 0 924.1 -1 20
2019-07-24 14:00:00 34.8 12 Sudoeste 27 Sudeste 0 924.5 -1 21
2019-07-24 13:00:00 34.2 14 Sudeste 28 Sudeste 0 925 -0.7 22
2019-07-24 12:00:00 32.9 13 Sudeste 24 Sudeste 0 925.1 -0.1 24
2019-07-24 11:00:00 32.3 9 Sudeste 20 Este 0 925.5 0.6 28
2019-07-24 10:00:00 30.1 8 Sudeste 14 Sudeste 0 925.7 0.8 31
2019-07-24 09:00:00 27.4 11 Sudeste 29 Sudeste 0 925.2 0.3 40
2019-07-24 08:00:00 24.7 11 Sudeste 19 Sudeste 0 924.9 -0.3 45
2019-07-24 07:00:00 23.4 15 Sudeste 18 Sudeste 0 924.9 -0.4 45
2019-07-24 06:00:00 23.4 13 Sudeste 19 Sudeste 0 924.9 -0.6 45
2019-07-24 05:00:00 22.7 5 Este 10 Este 0 925.2 -0.8 41
2019-07-24 04:00:00 22.6 3 Este 7 Este 0 925.3 -0.8 42
2019-07-24 03:00:00 22.1 3 Sudoeste 11 Oeste 0 925.5 -0.3 42
2019-07-24 02:00:00 22.9 4 Sudoeste 22 Noroeste 0 926 0.7 37
2019-07-24 01:00:00 27.2 13 Sudeste 17 Sur 0 926.1 1.4 28
2019-07-24 00:00:00 29.6 0 Calma 18 Oeste 0 925.8 1.5 26
2019-07-23 23:00:00 28.7 5 Sur 23 Sudoeste 0 925.3 1.5 31
2019-07-23 22:00:00 29.1 19 Sudoeste 34 Sur 0 924.7 1.1 27
2019-07-23 21:00:00 32.7 19 Sur 43 Sudeste 0 924.3 0.6 21
2019-07-23 20:00:00 33.6 29 Sur 47 Sudeste 0 923.8 0 19
2019-07-23 19:00:00 35.9 17 Sudoeste 49 Sudoeste 0 923.6 -0.8 19
2019-07-23 18:00:00 35.1 23 Sur 40 Sur 0 923.7 -1.3 18
2019-07-23 17:00:00 37.2 16 Sur 33 Sudoeste 0 923.8 -1.5 18
2019-07-23 16:00:00 35.3 13 Sur 34 Sur 0 924.4 -1.7 18
2019-07-23 15:00:00 35.8 16 Sudeste 34 Sur 0 925 -1.1 19
2019-07-23 14:00:00 36.3 20 Sudeste 32 Sudeste 0 925.3 -1.5 19
2019-07-23 13:00:00 35.3 14 Sudeste 31 Sudeste 0 926.1 -0.3 19
2019-07-23 12:00:00 33.5 10 Sudeste 22 Sudeste 0 926.1 -0.4 21
2019-07-23 11:00:00 30.9 6 Nordeste 10 Nordeste 0 926.8 0.1 22
2019-07-23 10:00:00 29.9 3 Nordeste 8 Este 0 926.4 -0.1 24
2019-07-23 09:00:00 27.3 4 Este 6 Sudeste 0 926.5 0.6 26
2019-07-23 08:00:00 23.9 2 Nordeste 9 Este 0 926.7 0.3 29
2019-07-23 07:00:00 23.2 6 Nordeste 13 Este 0 926.5 -0.2 29
2019-07-23 06:00:00 22.9 5 Nordeste 10 Nordeste 0 925.9 -0.9 31
2019-07-23 05:00:00 25 0 Calma 12 Este 0 926.4 -0.2 29
2019-07-23 04:00:00 24.3 7 Oeste 24 Sur 0 926.7 -0.2 27
2019-07-23 03:00:00 26 4 Noroeste 31 Sur 0 926.8 0.3 25
2019-07-23 02:00:00 26.9 18 Sur 23 Sur 0 926.6 0.4 26
2019-07-23 01:00:00 27.5 8 Sudeste 24 Sudeste 0 926.9 0.9 27
2019-07-23 00:00:00 29.1 21 Sudeste 27 Sudeste 0 926.5 1.4 25
2019-07-22 23:00:00 29.8 17 Sudeste 27 Sudeste 0 926.2 1 24
2019-07-22 22:00:00 32.2 18 Sudeste 32 Sur 0 926 0.9 22
2019-07-22 21:00:00 33.9 22 Sur 31 Sudeste 0 925.1 -0.4 21
2019-07-22 20:00:00 35.9 12 Sur 29 Sudeste 0 925.2 -0.9 19
2019-07-22 19:00:00 36.5 12 Sur 33 Sur 0 925.1 -1.3 19
2019-07-22 18:00:00 37.3 15 Sur 32 Sur 0 925.5 -1.4 18
2019-07-22 17:00:00 37.4 13 Sur 34 Sur 0 926.1 -1.7 19
2019-07-22 16:00:00 37.4 10 Sur 29 Sudeste 0 926.4 -1.8 19
2019-07-22 15:00:00 36.4 13 Este 25 Este 0 926.9 -1.8 21
2019-07-22 14:00:00 34.9 8 Este 30 Este 0 927.8 -1.2 23
2019-07-22 13:00:00 33.3 8 Este 19 Este 0 928.2 -0.3 25
2019-07-22 12:00:00 31.4 8 Este 27 Sudeste 0 928.7 0.1 29
2019-07-22 11:00:00 29.3 13 Sudeste 23 Sudeste 0 929 0.6 34
2019-07-22 10:00:00 28.2 12 Este 23 Sudeste 0 928.5 0.6 35
2019-07-22 09:00:00 25.7 11 Este 17 Sudeste 0 928.6 0.8 43
2019-07-22 08:00:00 23.5 14 Sudeste 18 Sudeste 0 928.4 1 46
2019-07-22 07:00:00 23.7 6 Este 17 Sudeste 0 927.9 0.2 45
2019-07-22 06:00:00 24.8 11 Este 16 Sudeste 0 927.8 0.3 42
2019-07-22 05:00:00 25.6 11 Sudeste 21 Sudeste 0 927.4 -0.1 40
2019-07-22 04:00:00 26 11 Sudeste 27 Sudeste 0 927.7 -0.1 36
2019-07-22 03:00:00 26.6 23 Sudeste 43 Sur 0 927.5 -0.3 32
2019-07-22 02:00:00 27 29 Sudeste 43 Sur 0 927.5 0.2 32
2019-07-22 01:00:00 27.6 26 Sur 42 Sudeste 0 927.8 1.3 29
2019-07-22 00:00:00 28.4 21 Sudeste 31 Sudeste 0 927.8 2.1 25